Terminal Aerodrome Forecast
Issued by NWS

Home | Current Version | Previous Version | Text Only | Print | Product List | Glossary On
Versions: 1 2 3 4 5 6 7 8 9 10 11 12 13 14 15 16 17 18 19 20 21 22 23 24 25 26 27 28 29 30 31 32 33 34 35 36 37 38 39 40 41 42
000
FTAK31 PANC 271740
TAFAGK
TAF
PAGK 271740Z 2718/2818 VRB03KT 6SM BR OVC003
      TEMPO 2718/2721 1SM BR BKN002
     FM272100 36005KT P6SM SCT015 OVC025
     FM280800 34010G16KT P6SM VCSH OVC060=

USA.gov is the U.S. government's official web portal to all federal, state and local government web resources and services.